createdAt,value
2023-03-16T00:00:23.480Z,5.52
2023-03-16T00:02:50.969Z,5.61
2023-03-16T00:05:18.509Z,5.55
2023-03-16T00:07:47.261Z,5.59
2023-03-16T00:10:14.753Z,5.52
2023-03-16T00:12:43.520Z,5.32
2023-03-16T00:15:11.691Z,5.31
2023-03-16T00:17:39.288Z,5.32
2023-03-16T00:20:08.145Z,5.33
2023-03-16T00:22:35.661Z,5.29
2023-03-16T00:25:05.036Z,5.38
2023-03-16T00:27:32.468Z,5.31
2023-03-16T00:29:59.974Z,5.30
2023-03-16T00:32:29.242Z,5.33
2023-03-16T00:34:57.080Z,5.52
2023-03-16T00:37:26.674Z,5.51
2023-03-16T00:39:56.066Z,5.43
2023-03-16T00:42:27.865Z,5.49
2023-03-16T00:44:57.360Z,5.41
2023-03-16T00:47:25.532Z,5.46
2023-03-16T00:49:53.342Z,5.22
2023-03-16T00:52:22.124Z,5.25
2023-03-16T00:54:49.939Z,5.17
2023-03-16T00:57:19.072Z,5.24
2023-03-16T00:59:48.797Z,5.23
2023-03-16T01:02:19.212Z,5.29
2023-03-16T01:04:46.932Z,5.29
2023-03-16T01:07:15.829Z,5.18
2023-03-16T01:09:43.992Z,5.09
2023-03-16T01:12:14.554Z,5.22
2023-03-16T01:14:42.578Z,5.28
2023-03-16T01:17:13.811Z,5.30
2023-03-16T01:19:41.584Z,5.30
2023-03-16T01:22:11.516Z,5.22
2023-03-16T01:24:39.619Z,5.11
2023-03-16T01:27:07.729Z,5.16
2023-03-16T01:29:35.768Z,5.15
2023-03-16T01:32:04.191Z,5.08
2023-03-16T01:34:33.973Z,5.13
2023-03-16T01:37:02.163Z,5.22
2023-03-16T01:39:29.743Z,5.25
2023-03-16T01:41:57.249Z,5.24
2023-03-16T01:44:30.310Z,5.22
2023-03-16T01:46:58.110Z,5.19
2023-03-16T01:49:27.752Z,5.18
2023-03-16T01:52:00.880Z,5.15
2023-03-16T01:54:34.570Z,5.09
2023-03-16T01:57:05.800Z,5.15
2023-03-16T01:59:36.959Z,5.12
2023-03-16T02:02:04.909Z,5.09
2023-03-16T02:04:46.417Z,4.92
2023-03-16T02:07:17.901Z,5.06
2023-03-16T02:09:47.927Z,5.00
2023-03-16T02:12:18.737Z,5.03
2023-03-16T02:14:46.527Z,5.12
2023-03-16T02:17:15.287Z,5.08
2023-03-16T02:19:54.285Z,5.11
2023-03-16T02:22:24.983Z,5.18
2023-03-16T02:24:52.963Z,5.18
2023-03-16T02:27:27.646Z,5.15
2023-03-16T02:30:04.698Z,5.18
2023-03-16T02:32:33.586Z,5.21
2023-03-16T02:35:02.422Z,5.18
2023-03-16T02:37:33.856Z,5.21
2023-03-16T02:40:01.714Z,5.26
2023-03-16T02:42:30.067Z,5.27
2023-03-16T02:45:00.975Z,5.23
2023-03-16T02:47:34.751Z,5.20
2023-03-16T02:50:06.294Z,5.30
2023-03-16T02:52:35.026Z,5.27
2023-03-16T02:55:02.893Z,5.09
2023-03-16T02:57:31.622Z,5.26
2023-03-16T03:00:01.101Z,5.37
2023-03-16T03:02:28.523Z,5.23
2023-03-16T03:04:55.974Z,5.27
2023-03-16T03:07:31.651Z,5.40
2023-03-16T03:09:59.416Z,5.39
2023-03-16T03:12:26.881Z,5.38
2023-03-16T03:14:54.364Z,5.16
2023-03-16T03:17:29.743Z,5.10
2023-03-16T03:19:57.318Z,5.24
2023-03-16T03:22:26.093Z,5.24
2023-03-16T03:24:54.183Z,5.29
2023-03-16T03:27:22.472Z,5.37
2023-03-16T03:29:50.056Z,5.42
2023-03-16T03:32:17.518Z,5.37
2023-03-16T03:34:46.304Z,5.33
2023-03-16T03:37:13.728Z,5.25
2023-03-16T03:39:41.265Z,5.13
2023-03-16T03:42:09.050Z,5.12
2023-03-16T03:44:36.485Z,5.19
2023-03-16T03:47:05.624Z,5.14
2023-03-16T03:49:33.114Z,5.23
2023-03-16T03:52:04.874Z,5.29
2023-03-16T03:54:32.325Z,5.26
2023-03-16T03:56:59.761Z,5.17
2023-03-16T03:59:27.228Z,5.16
2023-03-16T04:01:54.719Z,5.28
2023-03-16T04:04:22.192Z,5.28
2023-03-16T04:06:51.094Z,5.41
2023-03-16T04:09:19.873Z,5.41
2023-03-16T04:11:47.269Z,5.47
2023-03-16T04:14:14.719Z,5.53
2023-03-16T04:16:44.147Z,5.45
2023-03-16T04:19:12.195Z,5.48
2023-03-16T04:21:39.616Z,5.54
2023-03-16T04:24:07.424Z,5.49
2023-03-16T04:26:36.220Z,5.22
2023-03-16T04:29:03.757Z,5.37
2023-03-16T04:31:31.222Z,5.37
2023-03-16T04:33:58.713Z,5.35
2023-03-16T04:36:26.391Z,5.48
2023-03-16T04:38:53.881Z,5.47
2023-03-16T04:41:21.336Z,5.43
2023-03-16T04:43:50.199Z,5.23
2023-03-16T04:46:17.847Z,5.27
2023-03-16T04:48:45.645Z,5.19
2023-03-16T04:51:13.129Z,5.20
2023-03-16T04:53:40.583Z,5.02
2023-03-16T04:56:08.855Z,5.07
2023-03-16T04:58:36.354Z,4.96
2023-03-16T05:01:05.311Z,4.96
2023-03-16T05:03:34.686Z,5.08
2023-03-16T05:06:02.297Z,5.23
2023-03-16T05:08:29.748Z,5.14
2023-03-16T05:10:58.007Z,5.12
2023-03-16T05:13:25.652Z,5.25
2023-03-16T05:15:54.447Z,5.18
2023-03-16T05:18:23.741Z,5.28
2023-03-16T05:20:51.912Z,5.36
2023-03-16T05:23:19.324Z,5.32
2023-03-16T05:25:47.331Z,5.32
2023-03-16T05:28:14.904Z,5.29
2023-03-16T05:30:43.076Z,5.16
2023-03-16T05:33:10.600Z,5.15
2023-03-16T05:35:39.518Z,5.20
2023-03-16T05:38:07.557Z,5.32
2023-03-16T05:40:35.091Z,5.21
2023-03-16T05:43:02.516Z,5.22
2023-03-16T05:45:29.955Z,5.33
2023-03-16T05:47:57.458Z,5.32
2023-03-16T05:50:24.981Z,5.36
2023-03-16T05:52:54.087Z,5.33
2023-03-16T05:55:21.515Z,5.27
2023-03-16T05:57:48.972Z,5.39
2023-03-16T06:00:19.641Z,5.37
2023-03-16T06:02:48.873Z,5.42
2023-03-16T06:05:17.244Z,5.37
2023-03-16T06:07:45.260Z,5.47
2023-03-16T06:10:14.597Z,5.48
2023-03-16T06:12:42.481Z,5.49
2023-03-16T06:15:11.735Z,5.44
2023-03-16T06:17:41.331Z,5.36
2023-03-16T06:20:11.440Z,5.41
2023-03-16T06:22:39.340Z,5.44
2023-03-16T06:25:09.766Z,5.47
2023-03-16T06:27:38.914Z,5.54
2023-03-16T06:30:08.580Z,5.55
2023-03-16T06:32:36.483Z,5.59
2023-03-16T06:35:04.205Z,5.56
2023-03-16T06:37:32.618Z,5.54
2023-03-16T06:40:00.164Z,5.64
2023-03-16T06:42:27.860Z,5.53
2023-03-16T06:44:56.806Z,5.54
2023-03-16T06:47:24.271Z,5.57
2023-03-16T06:49:54.238Z,5.46
2023-03-16T06:52:21.824Z,5.68
2023-03-16T06:54:49.269Z,5.84
2023-03-16T06:57:16.828Z,5.86
2023-03-16T06:59:44.258Z,6.03
2023-03-16T07:02:14.863Z,6.11
2023-03-16T07:04:42.692Z,6.17
2023-03-16T07:07:11.567Z,6.07
2023-03-16T07:09:41.630Z,5.92
2023-03-16T07:12:10.386Z,5.95
2023-03-16T07:14:37.995Z,6.04
2023-03-16T07:17:06.426Z,6.10
2023-03-16T07:19:35.335Z,6.11
2023-03-16T07:22:03.988Z,6.20
2023-03-16T07:24:32.682Z,6.25
2023-03-16T07:27:00.157Z,6.17
2023-03-16T07:29:27.659Z,6.32
2023-03-16T07:31:55.636Z,6.45
2023-03-16T07:34:23.146Z,6.49
2023-03-16T07:36:52.731Z,6.31
2023-03-16T07:39:20.245Z,6.33
2023-03-16T07:41:47.739Z,6.48
2023-03-16T07:44:15.277Z,6.43
2023-03-16T07:46:42.794Z,6.48
2023-03-16T07:49:12.111Z,6.63
2023-03-16T07:51:40.003Z,6.73
2023-03-16T07:54:09.016Z,6.71
2023-03-16T07:56:48.452Z,6.73
2023-03-16T07:59:16.613Z,6.80
2023-03-16T08:01:44.533Z,6.94
2023-03-16T08:04:12.479Z,7.01
2023-03-16T08:06:40.228Z,7.13
2023-03-16T08:09:09.327Z,7.00
2023-03-16T08:11:36.794Z,7.05
2023-03-16T08:14:05.355Z,7.18
2023-03-16T08:16:32.973Z,7.19
2023-03-16T08:19:01.164Z,7.37
2023-03-16T08:21:30.168Z,7.53
2023-03-16T08:23:57.678Z,7.66
2023-03-16T08:26:27.152Z,7.55
2023-03-16T08:28:55.072Z,7.41
2023-03-16T08:31:23.478Z,7.56
2023-03-16T08:33:51.700Z,7.51
2023-03-16T08:36:21.164Z,7.51
2023-03-16T08:39:04.095Z,7.58
2023-03-16T08:41:35.774Z,7.61
2023-03-16T08:44:03.538Z,7.41
2023-03-16T08:46:31.638Z,7.41
2023-03-16T08:48:59.136Z,7.38
2023-03-16T08:51:27.296Z,7.50
2023-03-16T08:53:55.490Z,7.54
2023-03-16T08:56:23.239Z,7.46
2023-03-16T08:58:53.015Z,7.59
2023-03-16T09:01:20.946Z,7.73
2023-03-16T09:03:48.730Z,7.74
2023-03-16T09:06:17.934Z,7.66
2023-03-16T09:08:47.553Z,7.53
2023-03-16T09:11:17.084Z,7.66
2023-03-16T09:13:45.879Z,7.74
2023-03-16T09:16:15.678Z,7.82
2023-03-16T09:18:44.115Z,7.80
2023-03-16T09:21:13.871Z,7.57
2023-03-16T09:23:42.793Z,7.54
2023-03-16T09:26:12.459Z,7.82
2023-03-16T09:28:41.881Z,7.74
2023-03-16T09:31:10.166Z,7.85
2023-03-16T09:33:39.911Z,7.70
2023-03-16T09:36:07.544Z,7.64
2023-03-16T09:38:35.015Z,7.77
2023-03-16T09:41:07.682Z,7.88
2023-03-16T09:43:58.946Z,8.05
2023-03-16T09:46:29.318Z,8.13
2023-03-16T09:48:58.791Z,8.21
2023-03-16T09:51:38.559Z,8.33
2023-03-16T09:54:18.440Z,8.61
2023-03-16T09:56:47.688Z,8.86
2023-03-16T09:59:17.355Z,8.94
2023-03-16T10:01:58.453Z,8.80
2023-03-16T10:04:41.349Z,9.10
2023-03-16T10:07:24.147Z,9.22
2023-03-16T10:09:58.518Z,9.25
2023-03-16T10:12:31.923Z,9.41
2023-03-16T10:15:05.692Z,9.45
2023-03-16T10:17:39.944Z,9.41
2023-03-16T10:20:17.328Z,9.49
2023-03-16T10:22:47.374Z,9.55
2023-03-16T10:25:23.107Z,9.52
2023-03-16T10:27:51.257Z,9.73
2023-03-16T10:30:24.451Z,9.87
2023-03-16T10:32:52.664Z,10.15
2023-03-16T10:35:35.976Z,10.17
2023-03-16T10:38:03.504Z,10.05
2023-03-16T10:40:33.524Z,10.13
2023-03-16T10:43:06.946Z,9.90
2023-03-16T10:45:36.644Z,10.03
2023-03-16T10:48:09.394Z,9.72
2023-03-16T10:50:38.330Z,9.83
2023-03-16T10:53:05.820Z,9.89
2023-03-16T10:55:43.593Z,9.84
2023-03-16T10:58:11.121Z,9.92
2023-03-16T11:00:45.331Z,9.94
2023-03-16T11:03:23.772Z,9.89
2023-03-16T11:06:00.582Z,9.89
2023-03-16T11:08:32.539Z,9.89
2023-03-16T11:11:02.489Z,9.77
2023-03-16T11:13:34.419Z,9.78
2023-03-16T11:16:07.556Z,9.72
2023-03-16T11:18:39.530Z,9.98
2023-03-16T11:21:17.160Z,9.66
2023-03-16T11:23:55.929Z,9.86
2023-03-16T11:26:28.229Z,10.00
2023-03-16T11:29:02.476Z,10.19
2023-03-16T11:31:42.618Z,10.28
2023-03-16T11:34:16.066Z,10.38
2023-03-16T11:36:51.130Z,10.41
2023-03-16T11:39:40.232Z,10.44
2023-03-16T11:42:20.647Z,10.47
2023-03-16T11:44:56.482Z,10.62
2023-03-16T11:47:58.370Z,11.01
2023-03-16T11:50:34.465Z,11.26
2023-03-16T11:53:12.124Z,11.57
2023-03-16T11:55:48.035Z,11.49
2023-03-16T11:58:29.903Z,11.72
2023-03-16T12:01:07.340Z,11.73
2023-03-16T12:03:57.003Z,11.81
2023-03-16T12:06:39.189Z,12.00
2023-03-16T12:09:35.673Z,11.92
2023-03-16T12:12:08.687Z,12.20
2023-03-16T12:14:42.648Z,12.27
2023-03-16T12:17:15.646Z,12.46
2023-03-16T12:19:50.283Z,12.74
2023-03-16T12:22:22.584Z,12.72
2023-03-16T12:24:51.456Z,12.82
2023-03-16T12:27:23.909Z,12.79
2023-03-16T12:30:03.626Z,12.49
2023-03-16T12:32:42.731Z,12.78
2023-03-16T12:35:22.503Z,12.82
2023-03-16T12:38:01.304Z,12.89
2023-03-16T12:40:39.461Z,12.84
2023-03-16T12:43:19.173Z,12.76
2023-03-16T12:45:52.777Z,12.64
2023-03-16T12:48:28.063Z,12.62
2023-03-16T12:50:58.674Z,12.47
2023-03-16T12:53:28.647Z,12.12
2023-03-16T12:55:58.192Z,12.09
2023-03-16T12:58:28.001Z,12.09
2023-03-16T13:00:59.001Z,12.00
2023-03-16T13:03:28.400Z,11.84
2023-03-16T13:05:59.385Z,11.88
2023-03-16T13:08:28.829Z,11.84
2023-03-16T13:11:06.812Z,11.99
2023-03-16T13:13:36.222Z,11.91
2023-03-16T13:16:09.231Z,11.88
2023-03-16T13:18:41.728Z,11.92
2023-03-16T13:21:19.377Z,12.07
2023-03-16T13:23:59.342Z,12.13
2023-03-16T13:26:39.095Z,12.28
2023-03-16T13:29:20.249Z,12.46
2023-03-16T13:31:48.501Z,12.57
2023-03-16T13:34:23.183Z,12.71
2023-03-16T13:36:56.815Z,12.61
2023-03-16T13:39:27.262Z,12.47
2023-03-16T13:42:05.524Z,12.67
2023-03-16T13:44:33.728Z,12.52
2023-03-16T13:47:05.470Z,12.58
2023-03-16T13:49:33.119Z,12.90
2023-03-16T13:52:00.888Z,12.69
2023-03-16T13:54:30.593Z,12.86
2023-03-16T13:57:00.224Z,12.67
2023-03-16T13:59:29.229Z,12.52
2023-03-16T14:01:59.480Z,12.63
2023-03-16T14:04:29.131Z,12.74
2023-03-16T14:06:58.168Z,12.62
2023-03-16T14:09:28.887Z,12.64
2023-03-16T14:11:57.682Z,12.81
2023-03-16T14:14:30.684Z,12.98
2023-03-16T14:17:05.263Z,13.11
2023-03-16T14:19:42.258Z,13.15
2023-03-16T14:22:15.555Z,13.08
2023-03-16T14:24:44.213Z,12.96
2023-03-16T14:27:21.704Z,12.86
2023-03-16T14:29:59.841Z,12.93
2023-03-16T14:32:31.771Z,12.83
2023-03-16T14:35:12.843Z,12.89
2023-03-16T14:37:41.098Z,12.95
2023-03-16T14:40:21.744Z,13.33
2023-03-16T14:42:49.475Z,13.36
2023-03-16T14:45:20.248Z,13.32
2023-03-16T14:47:49.561Z,13.28
2023-03-16T14:50:23.695Z,13.38
2023-03-16T14:52:52.566Z,13.54
2023-03-16T14:55:22.763Z,13.61
2023-03-16T14:57:51.275Z,13.64
2023-03-16T15:00:22.788Z,13.56
2023-03-16T15:03:02.417Z,13.50
2023-03-16T15:05:35.310Z,13.60
2023-03-16T15:08:06.589Z,13.70
2023-03-16T15:10:36.672Z,13.82
2023-03-16T15:13:13.175Z,13.69
2023-03-16T15:15:42.758Z,13.50
2023-03-16T15:18:10.773Z,13.61
2023-03-16T15:20:42.199Z,13.70
2023-03-16T15:23:14.436Z,13.41
2023-03-16T15:25:43.382Z,13.36
2023-03-16T15:28:13.600Z,13.31
2023-03-16T15:30:43.153Z,13.29
2023-03-16T15:33:11.580Z,13.32
2023-03-16T15:35:40.112Z,13.18
2023-03-16T15:38:12.664Z,13.08
2023-03-16T15:40:40.639Z,12.92
2023-03-16T15:43:12.295Z,12.81
2023-03-16T15:45:39.794Z,13.07
2023-03-16T15:48:10.914Z,13.17
2023-03-16T15:50:40.830Z,12.82
2023-03-16T15:53:29.311Z,13.01
2023-03-16T15:56:01.127Z,12.79
2023-03-16T15:58:30.626Z,12.69
2023-03-16T16:01:00.936Z,12.68
2023-03-16T16:03:29.728Z,12.41
2023-03-16T16:05:57.288Z,12.38
2023-03-16T16:08:24.715Z,12.33
2023-03-16T16:10:53.681Z,12.29
2023-03-16T16:13:34.127Z,12.06
2023-03-16T16:16:10.814Z,11.79
2023-03-16T16:18:39.958Z,11.76
2023-03-16T16:21:12.854Z,11.84
2023-03-16T16:23:40.354Z,11.64
2023-03-16T16:26:21.148Z,11.83
2023-03-16T16:28:48.649Z,11.72
2023-03-16T16:31:16.894Z,11.71
2023-03-16T16:33:45.740Z,11.71
2023-03-16T16:36:17.554Z,11.63
2023-03-16T16:38:45.010Z,11.65
2023-03-16T16:41:24.755Z,11.55
2023-03-16T16:43:53.681Z,11.51
2023-03-16T16:46:23.721Z,11.47
2023-03-16T16:48:54.604Z,11.55
2023-03-16T16:51:24.595Z,11.60
2023-03-16T16:53:53.530Z,11.51
2023-03-16T16:56:26.263Z,11.40
2023-03-16T16:58:54.151Z,11.44
2023-03-16T17:01:26.563Z,11.55
2023-03-16T17:03:55.522Z,11.45
2023-03-16T17:06:23.506Z,11.40
2023-03-16T17:08:52.244Z,11.34
2023-03-16T17:11:22.829Z,11.20
2023-03-16T17:13:51.629Z,11.03
2023-03-16T17:16:21.857Z,10.92
2023-03-16T17:18:50.416Z,10.86
2023-03-16T17:21:21.677Z,10.93
2023-03-16T17:23:50.373Z,10.95
2023-03-16T17:26:19.677Z,10.78
2023-03-16T17:28:52.167Z,10.77
2023-03-16T17:31:24.426Z,10.87
2023-03-16T17:33:53.133Z,10.78
2023-03-16T17:36:23.400Z,10.84
2023-03-16T17:38:51.941Z,10.70
2023-03-16T17:41:23.650Z,10.56
2023-03-16T17:43:54.308Z,10.57
2023-03-16T17:46:24.398Z,10.52
2023-03-16T17:48:52.990Z,10.44
2023-03-16T17:51:25.372Z,10.47
2023-03-16T17:53:53.732Z,10.41
2023-03-16T17:56:24.201Z,10.31
2023-03-16T17:58:56.984Z,10.35
2023-03-16T18:01:29.059Z,10.42
2023-03-16T18:03:57.060Z,10.45
2023-03-16T18:06:29.061Z,10.27
2023-03-16T18:08:57.180Z,10.28
2023-03-16T18:11:31.707Z,10.18
2023-03-16T18:13:59.189Z,10.26
2023-03-16T18:16:28.149Z,10.25
2023-03-16T18:18:59.733Z,10.19
2023-03-16T18:21:28.697Z,10.20
2023-03-16T18:23:56.232Z,10.16
2023-03-16T18:26:24.485Z,10.18
2023-03-16T18:28:53.305Z,10.04
2023-03-16T18:31:23.717Z,10.04
2023-03-16T18:33:53.691Z,9.93
2023-03-16T18:36:24.924Z,9.96
2023-03-16T18:38:54.421Z,10.12
2023-03-16T18:41:24.248Z,10.06
2023-03-16T18:43:53.251Z,9.95
2023-03-16T18:46:25.073Z,9.86
2023-03-16T18:48:53.848Z,9.72
2023-03-16T18:51:22.187Z,9.79
2023-03-16T18:53:49.920Z,9.76
2023-03-16T18:56:21.614Z,9.74
2023-03-16T18:58:49.510Z,9.74
2023-03-16T19:01:26.454Z,9.72
2023-03-16T19:03:54.904Z,9.65
2023-03-16T19:06:27.155Z,9.57
2023-03-16T19:08:55.753Z,9.64
2023-03-16T19:11:24.666Z,9.62
2023-03-16T19:13:54.679Z,9.64
2023-03-16T19:16:23.202Z,9.62
2023-03-16T19:18:50.734Z,9.66
2023-03-16T19:21:21.053Z,9.70
2023-03-16T19:23:54.728Z,9.68
2023-03-16T19:26:23.821Z,9.60
2023-03-16T19:28:51.806Z,9.61
2023-03-16T19:31:22.204Z,9.61
2023-03-16T19:33:51.830Z,9.57
2023-03-16T19:36:22.487Z,9.54
2023-03-16T19:38:50.980Z,9.52
2023-03-16T19:41:27.752Z,9.46
2023-03-16T19:43:57.686Z,9.33
2023-03-16T19:46:25.954Z,9.48
2023-03-16T19:48:53.652Z,9.49
2023-03-16T19:51:21.805Z,9.44
2023-03-16T19:53:49.368Z,9.42
2023-03-16T19:56:19.864Z,9.42
2023-03-16T19:58:51.008Z,9.45
2023-03-16T20:01:22.036Z,9.41
2023-03-16T20:03:53.230Z,9.36
2023-03-16T20:06:23.187Z,9.30
2023-03-16T20:08:51.827Z,9.33
2023-03-16T20:11:26.359Z,9.33
2023-03-16T20:13:56.405Z,9.35
2023-03-16T20:16:28.334Z,9.43
2023-03-16T20:18:58.737Z,9.49
2023-03-16T20:21:27.380Z,9.39
2023-03-16T20:23:55.301Z,9.46
2023-03-16T20:26:24.579Z,9.35
2023-03-16T20:28:52.985Z,9.31
2023-03-16T20:31:23.417Z,9.33
2023-03-16T20:33:52.613Z,9.35
2023-03-16T20:36:21.993Z,9.35
2023-03-16T20:38:49.675Z,9.31
2023-03-16T20:41:23.145Z,9.31
2023-03-16T20:43:51.638Z,9.34
2023-03-16T20:46:24.386Z,9.28
2023-03-16T20:48:51.855Z,9.36
2023-03-16T20:51:19.570Z,9.33
2023-03-16T20:53:48.889Z,9.30
2023-03-16T20:56:17.882Z,9.25
2023-03-16T20:58:47.833Z,9.28
2023-03-16T21:01:18.171Z,9.32
2023-03-16T21:03:48.651Z,9.38
2023-03-16T21:06:23.500Z,9.40
2023-03-16T21:08:52.747Z,9.41
2023-03-16T21:11:23.599Z,9.31
2023-03-16T21:13:51.544Z,9.41
2023-03-16T21:16:19.999Z,9.34
2023-03-16T21:18:49.239Z,9.40
2023-03-16T21:21:18.246Z,9.46
2023-03-16T21:23:46.434Z,9.27
2023-03-16T21:26:16.979Z,9.29
2023-03-16T21:28:48.391Z,9.22
2023-03-16T21:31:19.689Z,9.20
2023-03-16T21:33:49.524Z,9.25
2023-03-16T21:36:19.424Z,9.24
2023-03-16T21:38:47.691Z,9.24
2023-03-16T21:41:16.503Z,9.27
2023-03-16T21:43:44.592Z,9.26
2023-03-16T21:46:18.281Z,9.29
2023-03-16T21:48:48.810Z,9.31
2023-03-16T21:51:19.696Z,9.33
2023-03-16T21:53:48.697Z,9.30
2023-03-16T21:56:18.688Z,9.39
2023-03-16T21:58:47.446Z,9.41
2023-03-16T22:01:23.419Z,9.35
2023-03-16T22:03:53.685Z,9.30
2023-03-16T22:06:23.615Z,9.33
2023-03-16T22:08:52.246Z,9.36
2023-03-16T22:11:22.443Z,9.35
2023-03-16T22:13:51.062Z,9.43
2023-03-16T22:16:20.491Z,9.42
2023-03-16T22:18:50.022Z,9.41
2023-03-16T22:21:29.973Z,9.30
2023-03-16T22:23:59.139Z,9.42
2023-03-16T22:26:27.723Z,9.39
2023-03-16T22:28:56.057Z,9.29
2023-03-16T22:31:30.264Z,9.36
2023-03-16T22:33:57.740Z,9.37
2023-03-16T22:36:26.899Z,9.46
2023-03-16T22:38:59.292Z,9.48
2023-03-16T22:41:27.045Z,9.48
2023-03-16T22:43:54.880Z,9.43
2023-03-16T22:46:24.738Z,9.39
2023-03-16T22:48:53.046Z,9.43
2023-03-16T22:51:24.698Z,9.47
2023-03-16T22:53:56.087Z,9.45
2023-03-16T22:56:24.440Z,9.47
2023-03-16T22:58:55.665Z,9.41
2023-03-16T23:01:24.499Z,9.48
2023-03-16T23:03:53.575Z,9.42
2023-03-16T23:06:23.149Z,9.51
2023-03-16T23:08:51.527Z,9.50
2023-03-16T23:11:23.851Z,9.55
2023-03-16T23:13:53.420Z,9.56
2023-03-16T23:16:23.219Z,9.63
2023-03-16T23:18:51.181Z,9.66
2023-03-16T23:21:21.207Z,9.71
2023-03-16T23:24:02.641Z,9.70
2023-03-16T23:26:32.908Z,9.63
2023-03-16T23:29:00.339Z,9.69
2023-03-16T23:31:28.275Z,9.68
2023-03-16T23:33:56.019Z,9.73
2023-03-16T23:36:25.743Z,9.72
2023-03-16T23:38:53.212Z,9.73
2023-03-16T23:41:23.456Z,9.74
2023-03-16T23:43:53.932Z,9.76
2023-03-16T23:46:24.188Z,9.74
2023-03-16T23:48:53.662Z,9.78
2023-03-16T23:51:23.858Z,9.74
2023-03-16T23:53:52.016Z,9.71
2023-03-16T23:56:19.890Z,9.78
2023-03-16T23:58:47.309Z,9.67
